createdAt,value
2018-06-20T00:00:46.877Z,87.05
2018-06-20T00:01:46.862Z,86.95
2018-06-20T00:02:46.826Z,86.85
2018-06-20T00:03:46.817Z,86.80
2018-06-20T00:04:46.813Z,86.80
2018-06-20T00:05:46.793Z,86.66
2018-06-20T00:06:46.850Z,86.76
2018-06-20T00:07:46.776Z,86.66
2018-06-20T00:08:46.774Z,86.66
2018-06-20T00:09:46.807Z,86.85
2018-06-20T00:10:46.763Z,86.66
2018-06-20T00:11:46.772Z,87.05
2018-06-20T00:12:46.760Z,86.95
2018-06-20T00:13:46.744Z,87.05
2018-06-20T00:14:46.727Z,87.24
2018-06-20T00:15:46.730Z,87.34
2018-06-20T00:16:46.713Z,87.24
2018-06-20T00:17:46.893Z,87.05
2018-06-20T00:18:46.703Z,86.85
2018-06-20T00:19:46.730Z,86.95
2018-06-20T00:20:46.677Z,87.05
2018-06-20T00:21:46.685Z,87.09
2018-06-20T00:22:46.691Z,86.66
2018-06-20T00:23:46.666Z,86.66
2018-06-20T00:24:46.663Z,86.71
2018-06-20T00:25:46.679Z,86.42
2018-06-20T00:26:46.700Z,86.66
2018-06-20T00:27:46.642Z,86.66
2018-06-20T00:28:46.619Z,86.28
2018-06-20T00:29:46.614Z,86.28
2018-06-20T00:30:46.619Z,86.47
2018-06-20T00:31:46.610Z,86.57
2018-06-20T00:32:46.610Z,86.76
2018-06-20T00:33:46.780Z,86.66
2018-06-20T00:34:46.590Z,86.95
2018-06-20T00:35:46.580Z,86.38
2018-06-20T00:36:46.554Z,86.66
2018-06-20T00:37:46.574Z,86.66
2018-06-20T00:38:46.556Z,86.61
2018-06-20T00:39:46.539Z,86.57
2018-06-20T00:40:46.525Z,86.66
2018-06-20T00:41:46.565Z,86.66
2018-06-20T00:42:46.724Z,86.66
2018-06-20T00:43:46.506Z,86.85
2018-06-20T00:44:46.512Z,87.15
2018-06-20T00:45:46.488Z,86.76
2018-06-20T00:46:46.479Z,87.05
2018-06-20T00:47:46.627Z,87.05
2018-06-20T00:48:46.495Z,86.95
2018-06-20T00:49:46.479Z,86.66
2018-06-20T00:50:46.442Z,87.24
2018-06-20T00:51:46.450Z,86.76
2018-06-20T00:52:46.445Z,87.24
2018-06-20T00:53:46.477Z,87.24
2018-06-20T00:54:46.446Z,87.24
2018-06-20T00:55:46.428Z,87.15
2018-06-20T00:56:46.414Z,87.15
2018-06-20T00:57:46.398Z,87.15
2018-06-20T00:58:46.394Z,87.15
2018-06-20T00:59:46.417Z,87.34
2018-06-20T01:00:46.375Z,87.34
2018-06-20T01:01:46.371Z,87.34
2018-06-20T01:02:46.358Z,87.24
2018-06-20T01:03:46.344Z,87.24
2018-06-20T01:04:46.393Z,86.95
2018-06-20T01:05:46.322Z,86.95
2018-06-20T01:06:46.322Z,87.05
2018-06-20T01:07:46.320Z,86.95
2018-06-20T01:08:46.304Z,86.95
2018-06-20T01:09:46.303Z,86.76
2018-06-20T01:10:46.327Z,86.85
2018-06-20T01:11:46.423Z,86.85
2018-06-20T01:12:46.292Z,86.76
2018-06-20T01:13:46.313Z,86.66
2018-06-20T01:14:46.268Z,86.76
2018-06-20T01:15:46.255Z,86.85
2018-06-20T01:16:46.254Z,86.76
2018-06-20T01:17:46.237Z,86.85
2018-06-20T01:18:46.311Z,86.95
2018-06-20T01:19:46.222Z,87.05
2018-06-20T01:20:46.209Z,87.15
2018-06-20T01:21:46.211Z,86.66
2018-06-20T01:22:46.199Z,86.66
2018-06-20T01:23:46.198Z,87.05
2018-06-20T01:24:46.192Z,86.76
2018-06-20T01:25:46.167Z,86.76
2018-06-20T01:26:46.160Z,87.24
2018-06-20T01:27:46.166Z,87.05
2018-06-20T01:28:46.159Z,87.05
2018-06-20T01:29:46.202Z,87.15
2018-06-20T01:30:46.139Z,86.76
2018-06-20T01:31:46.134Z,86.85
2018-06-20T01:32:46.148Z,86.95
2018-06-20T01:33:46.112Z,86.76
2018-06-20T01:34:46.107Z,86.66
2018-06-20T01:35:46.144Z,86.76
2018-06-20T01:36:46.136Z,86.76
2018-06-20T01:37:46.086Z,86.95
2018-06-20T01:38:46.091Z,86.76
2018-06-20T01:39:46.080Z,87.05
2018-06-20T01:40:46.046Z,87.15
2018-06-20T01:41:46.084Z,86.76
2018-06-20T01:42:46.050Z,86.66
2018-06-20T01:43:46.039Z,86.95
2018-06-20T01:44:46.014Z,86.66
2018-06-20T01:45:46.021Z,86.95
2018-06-20T01:46:46.152Z,86.76
2018-06-20T01:47:45.999Z,86.85
2018-06-20T01:48:45.992Z,86.85
2018-06-20T01:49:45.997Z,86.85
2018-06-20T01:50:45.971Z,86.76
2018-06-20T01:51:45.965Z,86.57
2018-06-20T01:52:45.987Z,86.66
2018-06-20T01:53:45.983Z,86.57
2018-06-20T01:54:45.952Z,86.47
2018-06-20T01:55:46.072Z,86.28
2018-06-20T01:56:45.938Z,86.38
2018-06-20T01:57:45.928Z,86.76
2018-06-20T01:58:45.947Z,86.76
2018-06-20T01:59:45.908Z,86.66
2018-06-20T02:00:45.908Z,86.57
2018-06-20T02:01:45.930Z,86.66
2018-06-20T02:02:45.877Z,86.66
2018-06-20T02:03:45.912Z,87.05
2018-06-20T02:04:45.889Z,87.05
2018-06-20T02:05:45.853Z,87.24
2018-06-20T02:06:45.851Z,87.24
2018-06-20T02:07:45.852Z,87.24
2018-06-20T02:08:45.831Z,87.10
2018-06-20T02:09:45.831Z,86.95
2018-06-20T02:10:45.826Z,87.05
2018-06-20T02:11:45.824Z,86.95
2018-06-20T02:12:45.795Z,87.92
2018-06-20T02:13:45.847Z,87.43
2018-06-20T02:14:45.797Z,87.34
2018-06-20T02:15:45.772Z,87.43
2018-06-20T02:16:45.777Z,87.72
2018-06-20T02:17:45.765Z,87.62
2018-06-20T02:18:45.760Z,87.34
2018-06-20T02:19:45.749Z,87.05
2018-06-20T02:20:45.747Z,86.85
2018-06-20T02:21:45.727Z,87.15
2018-06-20T02:22:45.720Z,87.34
2018-06-20T02:23:45.729Z,87.15
2018-06-20T02:24:45.779Z,87.24
2018-06-20T02:25:45.697Z,87.05
2018-06-20T02:26:45.685Z,86.85
2018-06-20T02:27:45.676Z,87.15
2018-06-20T02:28:45.681Z,87.24
2018-06-20T02:29:45.666Z,87.15
2018-06-20T02:30:45.788Z,87.34
2018-06-20T02:31:45.644Z,87.24
2018-06-20T02:32:45.636Z,87.24
2018-06-20T02:33:45.628Z,87.43
2018-06-20T02:34:45.622Z,87.34
2018-06-20T02:35:45.609Z,86.76
2018-06-20T02:36:45.675Z,87.34
2018-06-20T02:37:45.594Z,86.85
2018-06-20T02:38:45.593Z,87.24
2018-06-20T02:39:45.588Z,86.95
2018-06-20T02:40:45.614Z,86.66
2018-06-20T02:41:45.565Z,87.24
2018-06-20T02:42:45.561Z,87.24
2018-06-20T02:43:45.555Z,87.43
2018-06-20T02:44:45.557Z,87.15
2018-06-20T02:45:45.535Z,87.05
2018-06-20T02:46:45.529Z,87.05
2018-06-20T02:47:45.525Z,87.05
2018-06-20T02:48:45.515Z,86.66
2018-06-20T02:49:45.568Z,86.66
2018-06-20T02:50:45.501Z,86.76
2018-06-20T02:51:45.490Z,86.66
2018-06-20T02:52:45.536Z,86.76
2018-06-20T02:53:45.468Z,86.28
2018-06-20T02:54:45.465Z,86.38
2018-06-20T02:55:45.488Z,86.57
2018-06-20T02:56:45.458Z,86.57
2018-06-20T02:57:45.481Z,86.85
2018-06-20T02:58:45.429Z,86.76
2018-06-20T02:59:45.439Z,86.76
2018-06-20T03:00:45.414Z,86.66
2018-06-20T03:01:45.417Z,86.66
2018-06-20T03:02:45.508Z,86.66
2018-06-20T03:03:45.393Z,86.76
2018-06-20T03:04:45.400Z,86.95
2018-06-20T03:05:45.382Z,86.95
2018-06-20T03:06:45.369Z,87.05
2018-06-20T03:07:45.368Z,86.85
2018-06-20T03:08:45.389Z,86.95
2018-06-20T03:09:45.389Z,87.15
2018-06-20T03:10:45.339Z,87.05
2018-06-20T03:11:45.337Z,87.43
2018-06-20T03:12:45.347Z,87.24
2018-06-20T03:13:45.369Z,86.95
2018-06-20T03:14:45.370Z,86.76
2018-06-20T03:15:45.296Z,87.43
2018-06-20T03:16:45.292Z,87.24
2018-06-20T03:17:45.277Z,87.24
2018-06-20T03:18:45.278Z,87.34
2018-06-20T03:19:45.273Z,87.24
2018-06-20T03:20:45.285Z,87.24
2018-06-20T03:21:45.248Z,86.76
2018-06-20T03:22:45.246Z,87.05
2018-06-20T03:23:45.232Z,86.66
2018-06-20T03:24:45.308Z,87.43
2018-06-20T03:25:45.209Z,87.24
2018-06-20T03:26:45.210Z,87.05
2018-06-20T03:27:45.209Z,87.15
2018-06-20T03:28:45.200Z,86.95
2018-06-20T03:29:45.185Z,86.95
2018-06-20T03:30:45.238Z,86.95
2018-06-20T03:31:45.164Z,87.24
2018-06-20T03:32:45.166Z,87.15
2018-06-20T03:33:45.151Z,87.15
2018-06-20T03:34:45.143Z,87.24
2018-06-20T03:35:45.171Z,87.15
2018-06-20T03:36:45.137Z,87.24
2018-06-20T03:37:45.120Z,87.24
2018-06-20T03:38:45.155Z,87.34
2018-06-20T03:39:45.119Z,87.34
2018-06-20T03:40:45.128Z,87.05
2018-06-20T03:41:45.091Z,87.24
2018-06-20T03:42:45.122Z,87.24
2018-06-20T03:43:45.083Z,87.05
2018-06-20T03:44:45.077Z,87.05
2018-06-20T03:45:45.078Z,87.43
2018-06-20T03:46:45.081Z,86.95
2018-06-20T03:47:45.078Z,86.95
2018-06-20T03:48:45.035Z,86.95
2018-06-20T03:49:45.028Z,87.43
2018-06-20T03:50:45.022Z,86.95
2018-06-20T03:51:45.012Z,87.15
2018-06-20T03:52:45.046Z,87.15
2018-06-20T03:53:45.001Z,86.95
2018-06-20T03:54:44.989Z,87.05
2018-06-20T03:55:44.982Z,87.62
2018-06-20T03:56:44.973Z,86.95
2018-06-20T03:57:45.002Z,86.85
2018-06-20T03:58:44.953Z,87.24
2018-06-20T03:59:44.948Z,86.95
2018-06-20T04:00:44.943Z,87.72
2018-06-20T04:01:44.937Z,87.72
2018-06-20T04:02:44.957Z,87.53
2018-06-20T04:03:44.916Z,87.62
2018-06-20T04:04:44.943Z,87.62
2018-06-20T04:05:44.910Z,87.53
2018-06-20T04:06:44.887Z,87.24
2018-06-20T04:07:44.894Z,87.24
2018-06-20T04:08:44.887Z,87.15
2018-06-20T04:09:44.881Z,87.43
2018-06-20T04:10:44.880Z,87.72
2018-06-20T04:11:44.865Z,87.05
2018-06-20T04:12:44.869Z,87.34
2018-06-20T04:13:44.849Z,87.43
2018-06-20T04:14:44.834Z,87.72
2018-06-20T04:15:50.895Z,86.95
2018-06-20T04:16:44.808Z,87.15
2018-06-20T04:17:44.808Z,87.15
2018-06-20T04:18:44.806Z,87.62
2018-06-20T04:19:44.786Z,87.34
2018-06-20T04:20:44.770Z,87.53
2018-06-20T04:21:44.786Z,87.15
2018-06-20T04:22:44.764Z,87.43
2018-06-20T04:23:44.792Z,87.34
2018-06-20T04:24:44.746Z,87.53
2018-06-20T04:25:44.744Z,87.34
2018-06-20T04:26:44.729Z,87.15
2018-06-20T04:27:44.828Z,87.05
2018-06-20T04:28:44.761Z,87.34
2018-06-20T04:29:44.704Z,87.62
2018-06-20T04:30:44.723Z,86.95
2018-06-20T04:31:44.698Z,87.15
2018-06-20T04:32:44.686Z,86.95
2018-06-20T04:33:44.682Z,87.15
2018-06-20T04:34:44.826Z,87.15
2018-06-20T04:35:44.671Z,87.15
2018-06-20T04:36:44.670Z,87.05
2018-06-20T04:37:44.654Z,87.34
2018-06-20T04:38:44.653Z,87.05
2018-06-20T04:39:44.635Z,87.34
2018-06-20T04:40:44.625Z,87.34
2018-06-20T04:41:44.613Z,87.34
2018-06-20T04:42:44.614Z,87.15
2018-06-20T04:43:44.597Z,87.34
2018-06-20T04:44:44.643Z,87.24
2018-06-20T04:45:44.590Z,87.24
2018-06-20T04:46:44.581Z,87.15
2018-06-20T04:47:44.577Z,87.34
2018-06-20T04:48:44.568Z,87.15
2018-06-20T04:49:44.598Z,87.38
2018-06-20T04:50:44.553Z,87.29
2018-06-20T04:51:44.539Z,87.05
2018-06-20T04:52:44.538Z,87.09
2018-06-20T04:53:44.566Z,86.90
2018-06-20T04:54:44.518Z,86.71
2018-06-20T04:55:44.504Z,86.71
2018-06-20T04:56:44.497Z,87.09
2018-06-20T04:57:44.496Z,87.09
2018-06-20T04:58:44.533Z,86.90
2018-06-20T04:59:44.477Z,86.95
2018-06-20T05:00:44.512Z,86.95
2018-06-20T05:01:44.451Z,87.29
2018-06-20T05:02:44.486Z,87.19
2018-06-20T05:03:44.443Z,87.29
2018-06-20T05:04:44.549Z,87.19
2018-06-20T05:05:44.444Z,87.19
2018-06-20T05:06:44.430Z,87.29
2018-06-20T05:07:44.425Z,87.38
2018-06-20T05:08:44.416Z,87.38
2018-06-20T05:09:44.409Z,87.29
2018-06-20T05:10:44.435Z,87.38
2018-06-20T05:11:44.404Z,87.29
2018-06-20T05:12:44.378Z,87.19
2018-06-20T05:13:44.385Z,86.99
2018-06-20T05:14:44.365Z,86.90
2018-06-20T05:15:44.421Z,86.42
2018-06-20T05:16:44.343Z,86.52
2018-06-20T05:17:44.333Z,86.71
2018-06-20T05:18:44.341Z,86.90
2018-06-20T05:19:44.330Z,86.71
2018-06-20T05:20:44.309Z,87.09
2018-06-20T05:21:44.344Z,86.42
2018-06-20T05:22:44.307Z,86.80
2018-06-20T05:23:44.308Z,87.38
2018-06-20T05:24:44.290Z,87.29
2018-06-20T05:25:44.306Z,86.90
2018-06-20T05:26:44.308Z,87.48
2018-06-20T05:27:44.276Z,87.29
2018-06-20T05:28:44.262Z,87.19
2018-06-20T05:29:44.256Z,87.29
2018-06-20T05:30:44.239Z,87.19
2018-06-20T05:31:44.254Z,87.29
2018-06-20T05:32:44.293Z,87.19
2018-06-20T05:33:44.234Z,87.09
2018-06-20T05:34:44.205Z,87.19
2018-06-20T05:35:44.203Z,87.29
2018-06-20T05:36:44.204Z,87.29
2018-06-20T05:37:44.211Z,87.29
2018-06-20T05:38:44.185Z,87.13
2018-06-20T05:39:44.184Z,86.52
2018-06-20T05:40:44.171Z,87.13
2018-06-20T05:41:44.219Z,86.94
2018-06-20T05:42:44.168Z,86.85
2018-06-20T05:43:44.150Z,86.85
2018-06-20T05:44:44.131Z,86.75
2018-06-20T05:45:44.128Z,86.94
2018-06-20T05:46:44.130Z,86.75
2018-06-20T05:47:44.159Z,86.75
2018-06-20T05:48:44.150Z,87.23
2018-06-20T05:49:44.133Z,88.00
2018-06-20T05:50:44.102Z,87.23
2018-06-20T05:51:44.094Z,87.19
2018-06-20T05:52:44.076Z,87.04
2018-06-20T05:53:44.078Z,87.04
2018-06-20T05:54:44.091Z,87.71
2018-06-20T05:55:44.065Z,87.52
2018-06-20T05:56:44.054Z,87.90
2018-06-20T05:57:44.041Z,87.62
2018-06-20T05:58:44.040Z,87.42
2018-06-20T05:59:44.026Z,87.76
2018-06-20T06:00:44.047Z,88.00
2018-06-20T06:01:44.020Z,88.29
2018-06-20T06:02:44.012Z,88.00
2018-06-20T06:03:44.005Z,87.62
2018-06-20T06:04:44.052Z,88.06
2018-06-20T06:05:43.994Z,88.00
2018-06-20T06:06:43.978Z,87.62
2018-06-20T06:07:43.977Z,87.62
2018-06-20T06:08:43.983Z,87.52
2018-06-20T06:09:43.962Z,87.81
2018-06-20T06:10:43.999Z,87.52
2018-06-20T06:11:43.979Z,87.62
2018-06-20T06:12:43.956Z,87.52
2018-06-20T06:13:44.024Z,88.00
2018-06-20T06:14:43.916Z,87.42
2018-06-20T06:15:43.917Z,87.42
2018-06-20T06:16:44.476Z,88.19
2018-06-20T06:17:43.895Z,88.10
2018-06-20T06:18:44.162Z,88.29
2018-06-20T06:19:43.888Z,88.00
2018-06-20T06:20:43.876Z,88.29
2018-06-20T06:21:43.980Z,88.29
2018-06-20T06:22:43.876Z,88.10
2018-06-20T06:23:43.896Z,87.62
2018-06-20T06:24:43.845Z,87.52
2018-06-20T06:25:43.839Z,88.10
2018-06-20T06:26:43.838Z,87.81
2018-06-20T06:27:43.849Z,88.48
2018-06-20T06:28:43.856Z,88.29
2018-06-20T06:29:43.837Z,87.81
2018-06-20T06:30:43.802Z,88.29
2018-06-20T06:31:43.893Z,88.19
2018-06-20T06:32:43.855Z,88.00
2018-06-20T06:33:43.794Z,88.19
2018-06-20T06:34:43.783Z,88.29
2018-06-20T06:35:43.801Z,88.19
2018-06-20T06:36:43.770Z,88.33
2018-06-20T06:37:43.825Z,88.53
2018-06-20T06:38:43.746Z,87.90
2018-06-20T06:39:43.770Z,88.04
2018-06-20T06:40:43.732Z,88.33
2018-06-20T06:41:43.769Z,88.43
2018-06-20T06:42:43.719Z,88.91
2018-06-20T06:43:43.724Z,88.43
2018-06-20T06:44:43.707Z,88.33
2018-06-20T06:45:43.751Z,87.85
2018-06-20T06:46:43.810Z,87.85
2018-06-20T06:47:43.749Z,87.85
2018-06-20T06:48:43.698Z,88.24
2018-06-20T06:49:43.708Z,88.14
2018-06-20T06:50:43.860Z,88.33
2018-06-20T06:51:43.663Z,88.24
2018-06-20T06:52:43.663Z,88.33
2018-06-20T06:53:43.644Z,88.14
2018-06-20T06:54:43.634Z,88.04
2018-06-20T06:55:43.636Z,88.24
2018-06-20T06:56:43.705Z,87.46
2018-06-20T06:57:43.635Z,87.85
2018-06-20T06:58:43.616Z,87.85
2018-06-20T06:59:43.627Z,87.51
2018-06-20T07:00:43.606Z,87.66
2018-06-20T07:01:43.590Z,87.66
2018-06-20T07:02:43.709Z,87.32
2018-06-20T07:03:43.591Z,87.12
2018-06-20T07:04:43.571Z,87.41
2018-06-20T07:05:43.570Z,87.51
2018-06-20T07:06:43.569Z,87.32
2018-06-20T07:07:43.573Z,87.12
2018-06-20T07:08:43.601Z,87.51
2018-06-20T07:09:43.556Z,87.60
2018-06-20T07:10:43.529Z,87.99
2018-06-20T07:11:43.533Z,87.12
2018-06-20T07:12:43.532Z,87.32
2018-06-20T07:13:43.506Z,87.51
2018-06-20T07:14:43.515Z,87.32
2018-06-20T07:15:43.502Z,86.93
2018-06-20T07:16:43.517Z,86.93
2018-06-20T07:17:43.509Z,87.03
2018-06-20T07:18:43.485Z,86.45
2018-06-20T07:19:43.555Z,86.35
2018-06-20T07:20:43.480Z,85.78
2018-06-20T07:21:43.470Z,85.30
2018-06-20T07:22:43.466Z,85.30
2018-06-20T07:23:43.461Z,85.30
2018-06-20T07:24:43.451Z,85.20
2018-06-20T07:25:43.473Z,86.07
2018-06-20T07:26:43.441Z,86.35
2018-06-20T07:27:43.436Z,85.78
2018-06-20T07:28:43.433Z,85.58
2018-06-20T07:29:43.417Z,86.26
2018-06-20T07:30:43.415Z,85.97
2018-06-20T07:31:43.401Z,85.68
2018-06-20T07:32:43.407Z,85.58
2018-06-20T07:33:43.401Z,85.43
2018-06-20T07:34:43.462Z,85.30
2018-06-20T07:35:43.451Z,85.91
2018-06-20T07:36:43.376Z,85.24
2018-06-20T07:37:43.360Z,85.24
2018-06-20T07:38:43.360Z,85.43
2018-06-20T07:39:43.362Z,85.43
2018-06-20T07:40:43.403Z,84.66
2018-06-20T07:41:43.343Z,84.56
2018-06-20T07:42:43.338Z,84.76
2018-06-20T07:43:43.343Z,85.14
2018-06-20T07:44:43.327Z,85.43
2018-06-20T07:45:43.321Z,85.34
2018-06-20T07:46:43.333Z,85.43
2018-06-20T07:47:43.310Z,85.24
2018-06-20T07:48:43.339Z,84.09
2018-06-20T07:49:43.392Z,84.09
2018-06-20T07:50:43.363Z,83.80
2018-06-20T07:51:43.298Z,84.18
2018-06-20T07:52:43.279Z,84.28
2018-06-20T07:53:43.266Z,84.09
2018-06-20T07:54:43.264Z,83.51
2018-06-20T07:55:43.296Z,83.99
2018-06-20T07:56:43.265Z,83.80
2018-06-20T07:57:43.258Z,83.22
2018-06-20T07:58:45.120Z,83.70
2018-06-20T07:59:43.293Z,83.03
2018-06-20T08:00:43.260Z,83.31
2018-06-20T08:01:43.347Z,83.99
2018-06-20T08:02:45.078Z,83.74
2018-06-20T08:03:43.213Z,83.22
2018-06-20T08:04:43.200Z,83.03
2018-06-20T08:05:43.232Z,83.99
2018-06-20T08:06:43.188Z,83.41
2018-06-20T08:07:43.196Z,83.22
2018-06-20T08:08:43.312Z,83.12
2018-06-20T08:09:43.180Z,83.22
2018-06-20T08:10:43.213Z,83.70
2018-06-20T08:11:44.526Z,83.41
2018-06-20T08:12:43.183Z,83.89
2018-06-20T08:13:43.152Z,83.22
2018-06-20T08:14:43.144Z,82.93
2018-06-20T08:15:43.299Z,83.31
2018-06-20T08:16:43.147Z,83.03
2018-06-20T08:17:43.128Z,82.93
2018-06-20T08:18:43.184Z,82.93
2018-06-20T08:19:43.183Z,83.31
2018-06-20T08:20:43.109Z,83.22
2018-06-20T08:21:43.256Z,83.12
2018-06-20T08:22:43.124Z,83.41
2018-06-20T08:23:43.094Z,83.22
2018-06-20T08:24:43.089Z,83.70
2018-06-20T08:25:43.135Z,83.51
2018-06-20T08:26:43.077Z,83.22
2018-06-20T08:27:43.060Z,83.80
2018-06-20T08:28:43.085Z,83.61
2018-06-20T08:29:43.070Z,83.41
2018-06-20T08:30:43.107Z,82.83
2018-06-20T08:31:43.086Z,83.03
2018-06-20T08:32:43.023Z,83.22
2018-06-20T08:33:43.019Z,82.83
2018-06-20T08:34:43.199Z,83.22
2018-06-20T08:35:43.063Z,83.31
2018-06-20T08:36:43.016Z,82.83
2018-06-20T08:37:43.224Z,82.39
2018-06-20T08:38:44.066Z,82.93
2018-06-20T08:39:43.806Z,82.93
2018-06-20T08:40:43.045Z,82.87
2018-06-20T08:41:42.976Z,82.97
2018-06-20T08:42:42.982Z,82.29
2018-06-20T08:43:43.038Z,81.91
2018-06-20T08:44:42.961Z,82.01
2018-06-20T08:45:42.980Z,82.01
2018-06-20T08:47:03.206Z,81.52
2018-06-20T08:47:43.687Z,81.72
2018-06-20T08:48:42.968Z,81.52
2018-06-20T08:49:42.955Z,81.52
2018-06-20T08:50:43.102Z,81.72
2018-06-20T08:51:42.928Z,81.72
2018-06-20T08:52:43.769Z,81.52
2018-06-20T08:55:10.673Z,81.29
2018-06-20T08:58:23.842Z,81.14
2018-06-20T08:59:17.726Z,80.62
2018-06-20T09:00:17.733Z,81.58
2018-06-20T09:01:17.730Z,81.68
2018-06-20T09:02:17.701Z,81.10
2018-06-20T09:03:17.847Z,80.62
2018-06-20T09:04:17.683Z,80.66
2018-06-20T09:05:18.557Z,80.81
2018-06-20T09:06:17.673Z,80.23
2018-06-20T09:07:18.548Z,80.27
2018-06-20T09:08:17.757Z,80.66
2018-06-20T09:09:18.011Z,80.76
2018-06-20T09:10:23.232Z,80.27
2018-06-20T09:11:17.653Z,80.37
2018-06-20T09:12:17.647Z,81.14
2018-06-20T09:13:17.694Z,81.52
2018-06-20T09:16:47.098Z,79.31
2018-06-20T09:17:45.213Z,79.11
2018-06-20T09:18:45.188Z,78.34
2018-06-20T09:19:45.172Z,77.76
2018-06-20T09:20:45.208Z,78.15
2018-06-20T09:21:45.336Z,78.34
2018-06-20T09:22:45.156Z,77.86
2018-06-20T09:23:45.837Z,77.96
2018-06-20T09:24:46.843Z,78.06
2018-06-20T09:25:45.126Z,79.02
2018-06-20T09:26:45.926Z,79.35
2018-06-20T09:27:45.117Z,78.44
2018-06-20T09:28:45.826Z,78.15
2018-06-20T09:29:46.054Z,77.58
2018-06-20T09:30:45.370Z,77.96
2018-06-20T09:31:45.843Z,78.38
2018-06-20T09:32:45.128Z,78.25
2018-06-20T09:33:45.845Z,77.76
2018-06-20T09:34:45.094Z,78.06
2018-06-20T09:35:49.312Z,78.34
2018-06-20T09:36:45.058Z,78.63
2018-06-20T09:37:45.069Z,78.25
2018-06-20T09:38:45.052Z,78.25
2018-06-20T09:39:45.175Z,78.44
2018-06-20T09:40:45.045Z,79.02
2018-06-20T09:41:45.033Z,79.35
2018-06-20T09:42:45.036Z,78.58
2018-06-20T09:43:45.028Z,78.58
2018-06-20T09:44:45.056Z,79.35
2018-06-20T09:45:45.023Z,78.77
2018-06-20T09:46:45.029Z,78.09
2018-06-20T09:47:45.849Z,79.16
2018-06-20T09:48:46.852Z,79.83
2018-06-20T09:49:45.007Z,78.29
2018-06-20T09:50:45.012Z,78.00
2018-06-20T09:51:44.990Z,78.29
2018-06-20T09:52:44.985Z,78.09
2018-06-20T09:53:45.046Z,77.51
2018-06-20T09:54:45.894Z,76.75
2018-06-20T09:55:44.959Z,77.71
2018-06-20T09:56:44.991Z,78.29
2018-06-20T09:57:44.953Z,77.13
2018-06-20T09:58:44.944Z,77.33
2018-06-20T09:59:44.944Z,76.84
2018-06-20T10:00:44.949Z,77.07
2018-06-20T10:01:44.927Z,76.68
2018-06-20T10:02:44.915Z,77.36
2018-06-20T10:03:45.096Z,76.68
2018-06-20T10:04:44.912Z,76.50
2018-06-20T10:05:44.949Z,76.59
2018-06-20T10:06:44.937Z,76.40
2018-06-20T10:07:44.928Z,76.53
2018-06-20T10:08:44.888Z,76.24
2018-06-20T10:09:44.997Z,75.85
2018-06-20T10:10:44.923Z,75.76
2018-06-20T10:11:44.875Z,75.72
2018-06-20T10:12:44.915Z,74.79
2018-06-20T10:13:44.900Z,75.27
2018-06-20T10:14:44.861Z,75.72
2018-06-20T10:15:44.916Z,75.62
2018-06-20T10:16:44.894Z,75.82
2018-06-20T10:17:44.859Z,75.53
2018-06-20T10:18:44.827Z,75.43
2018-06-20T10:19:44.882Z,75.92
2018-06-20T10:20:44.856Z,76.10
2018-06-20T10:21:44.926Z,75.72
2018-06-20T10:22:44.833Z,75.82
2018-06-20T10:23:44.861Z,75.82
2018-06-20T10:24:44.820Z,75.27
2018-06-20T10:25:44.836Z,75.43
2018-06-20T10:26:44.804Z,74.89
2018-06-20T10:27:44.811Z,74.31
2018-06-20T10:28:45.419Z,74.41
2018-06-20T10:29:44.871Z,74.02
2018-06-20T10:30:44.812Z,72.86
2018-06-20T10:31:44.775Z,73.54
2018-06-20T10:32:44.813Z,73.11
2018-06-20T10:33:44.772Z,73.83
2018-06-20T10:34:44.745Z,74.41
2018-06-20T10:35:44.751Z,74.60
2018-06-20T10:36:44.753Z,74.31
2018-06-20T10:37:44.789Z,74.41
2018-06-20T10:38:44.895Z,74.51
2018-06-20T10:39:44.741Z,74.12
2018-06-20T10:40:44.743Z,73.35
2018-06-20T10:41:44.717Z,73.25
2018-06-20T10:42:44.729Z,73.93
2018-06-20T10:43:44.717Z,74.02
2018-06-20T10:44:44.733Z,73.93
2018-06-20T10:45:44.709Z,74.79
2018-06-20T10:46:44.695Z,75.18
2018-06-20T10:47:44.708Z,75.70
2018-06-20T10:48:44.726Z,74.13
2018-06-20T10:49:44.681Z,72.52
2018-06-20T10:50:44.715Z,70.53
2018-06-20T10:51:44.737Z,71.40
2018-06-20T10:52:44.674Z,72.53
2018-06-20T10:53:44.702Z,71.41
2018-06-20T10:54:44.659Z,69.31
2018-06-20T10:55:44.665Z,69.44
2018-06-20T10:56:44.666Z,68.99
2018-06-20T10:57:44.807Z,68.02
2018-06-20T10:58:44.655Z,66.76
2018-06-20T10:59:44.653Z,66.63
2018-06-20T11:00:44.674Z,66.53
2018-06-20T11:01:45.389Z,64.40
2018-06-20T11:02:44.656Z,64.40
2018-06-20T11:03:44.686Z,62.72
2018-06-20T11:04:44.660Z,64.65
2018-06-20T11:05:44.679Z,64.75
2018-06-20T11:06:44.894Z,64.65
2018-06-20T11:07:44.655Z,65.20
2018-06-20T11:08:44.655Z,64.92
2018-06-20T11:09:44.736Z,66.37
2018-06-20T11:10:44.667Z,65.82
2018-06-20T11:11:44.644Z,65.14
2018-06-20T11:12:44.649Z,65.82
2018-06-20T11:13:44.667Z,64.65
2018-06-20T11:14:44.651Z,64.75
2018-06-20T11:15:44.664Z,63.98
2018-06-20T11:16:45.268Z,65.24
2018-06-20T11:17:45.399Z,65.82
2018-06-20T11:18:45.073Z,63.33
2018-06-20T11:19:44.666Z,63.53
2018-06-20T11:20:45.671Z,62.29
2018-06-20T11:21:44.736Z,61.91
2018-06-20T11:23:34.990Z,62.71
2018-06-20T11:23:47.763Z,62.07
2018-06-20T11:24:44.658Z,59.28
2018-06-20T11:25:44.663Z,57.04
2018-06-20T11:26:46.173Z,56.56
2018-06-20T11:27:53.195Z,57.75
2018-06-20T11:28:44.694Z,58.14
2018-06-20T11:29:44.663Z,59.63
2018-06-20T11:30:44.653Z,56.51
2018-06-20T11:31:44.668Z,56.54
2018-06-20T11:32:45.034Z,56.45
2018-06-20T11:33:44.728Z,55.35
2018-06-20T11:34:48.868Z,58.07
2018-06-20T11:35:45.467Z,54.47
2018-06-20T11:36:44.693Z,54.08
2018-06-20T11:37:44.710Z,56.74
2018-06-20T11:38:44.687Z,53.81
2018-06-20T11:39:44.691Z,54.43
2018-06-20T11:40:44.716Z,54.43
2018-06-20T11:41:44.706Z,53.85
2018-06-20T11:42:44.789Z,53.04
2018-06-20T11:43:44.709Z,51.84
2018-06-20T11:44:45.019Z,52.11
2018-06-20T11:45:45.592Z,53.35
2018-06-20T11:46:44.767Z,54.20
2018-06-20T11:47:44.719Z,54.85
2018-06-20T11:48:45.080Z,54.07
2018-06-20T11:49:44.752Z,56.57
2018-06-20T11:50:44.719Z,56.37
2018-06-20T11:51:44.757Z,57.80
2018-06-20T11:52:47.236Z,59.45
2018-06-20T11:53:46.471Z,59.36
2018-06-20T11:54:45.575Z,60.23
2018-06-20T11:55:44.730Z,59.26
2018-06-20T11:56:44.867Z,60.32
2018-06-20T11:57:45.431Z,59.52
2018-06-20T12:02:41.266Z,61.75
2018-06-20T12:03:41.258Z,62.23
2018-06-20T12:04:41.261Z,62.65
2018-06-20T12:05:41.359Z,62.62
2018-06-20T12:06:41.495Z,60.10
2018-06-20T12:07:41.661Z,58.45
2018-06-20T12:08:42.108Z,58.55
2018-06-20T12:09:41.598Z,60.17
2018-06-20T12:10:41.231Z,60.36
2018-06-20T12:11:41.206Z,60.58
2018-06-20T12:13:03.254Z,60.46
2018-06-20T12:13:41.210Z,60.39
2018-06-20T12:17:06.280Z,60.55
2018-06-20T12:18:05.551Z,60.27
2018-06-20T12:19:05.543Z,60.65
2018-06-20T12:20:05.619Z,61.11
2018-06-20T12:21:06.416Z,60.24
2018-06-20T12:22:05.571Z,60.82
2018-06-20T12:23:08.355Z,61.01
2018-06-20T12:24:05.689Z,60.91
2018-06-20T12:25:06.428Z,61.79
2018-06-20T12:26:07.422Z,62.75
2018-06-20T12:27:05.533Z,62.56
2018-06-20T12:28:07.413Z,62.56
2018-06-20T12:29:06.413Z,63.07
2018-06-20T12:30:05.572Z,62.75
2018-06-20T12:31:05.921Z,62.79
2018-06-20T12:32:05.557Z,62.49
2018-06-20T12:33:05.594Z,62.59
2018-06-20T12:34:05.514Z,63.07
2018-06-20T12:35:05.516Z,62.69
2018-06-20T12:36:09.413Z,62.69
2018-06-20T12:37:05.517Z,63.07
2018-06-20T12:39:32.504Z,63.17
2018-06-20T12:39:39.031Z,61.04
2018-06-20T12:40:33.070Z,61.04
2018-06-20T12:41:33.953Z,58.91
2018-06-20T12:42:33.098Z,60.46
2018-06-20T12:43:33.956Z,60.27
2018-06-20T12:44:33.036Z,61.36
2018-06-20T12:45:41.598Z,60.58
2018-06-20T12:46:33.044Z,60.00
2018-06-20T12:47:32.995Z,59.33
2018-06-20T12:48:32.998Z,59.23
2018-06-20T12:49:33.055Z,57.84
2018-06-20T12:50:33.969Z,59.00
2018-06-20T12:51:33.016Z,58.52
2018-06-20T12:52:34.001Z,59.97
2018-06-20T12:53:32.994Z,58.91
2018-06-20T12:54:32.976Z,59.30
2018-06-20T12:55:33.032Z,58.91
2018-06-20T12:56:33.170Z,58.91
2018-06-20T12:57:32.977Z,60.55
2018-06-20T12:58:32.975Z,60.07
2018-06-20T12:59:32.994Z,57.84
2018-06-20T13:00:32.969Z,58.55
2018-06-20T13:01:32.974Z,57.87
2018-06-20T13:02:33.171Z,57.84
2018-06-20T13:03:32.971Z,57.17
2018-06-20T13:04:32.953Z,57.94
2018-06-20T13:05:32.995Z,57.65